sensor_id;sensor_type;location;lat;lon;timestamp;pressure;altitude;pressure_sealevel;temperature;humidity
9855;BME280;4966;48.112;9.282;2023-02-18T00:01:10;95725.78;;;11.04;87.81
9855;BME280;4966;48.112;9.282;2023-02-18T00:03:36;95710.91;;;11.01;87.39
9855;BME280;4966;48.112;9.282;2023-02-18T00:06:10;95717.69;;;10.81;88.95
9855;BME280;4966;48.112;9.282;2023-02-18T00:08:36;95713.31;;;11.12;87.47
9855;BME280;4966;48.112;9.282;2023-02-18T00:11:04;95715.84;;;10.99;87.85
9855;BME280;4966;48.112;9.282;2023-02-18T00:13:30;95711.53;;;11.07;87.56
9855;BME280;4966;48.112;9.282;2023-02-18T00:16:00;95706.16;;;10.84;89.63
9855;BME280;4966;48.112;9.282;2023-02-18T00:18:25;95724.63;;;10.96;88.65
9855;BME280;4966;48.112;9.282;2023-02-18T00:20:51;95712.88;;;10.78;89.58
9855;BME280;4966;48.112;9.282;2023-02-18T00:23:16;95713.56;;;10.93;88.58
9855;BME280;4966;48.112;9.282;2023-02-18T00:25:41;95702.53;;;10.98;88.45
9855;BME280;4966;48.112;9.282;2023-02-18T00:28:07;95704.41;;;10.89;88.43
9855;BME280;4966;48.112;9.282;2023-02-18T00:30:32;95702.09;;;11.13;87.61
9855;BME280;4966;48.112;9.282;2023-02-18T00:32:57;95705.63;;;11.14;87.35
9855;BME280;4966;48.112;9.282;2023-02-18T00:35:23;95705.13;;;11.03;87.91
9855;BME280;4966;48.112;9.282;2023-02-18T00:37:51;95713.91;;;11.00;88.08
9855;BME280;4966;48.112;9.282;2023-02-18T00:40:17;95707.72;;;10.77;89.76
9855;BME280;4966;48.112;9.282;2023-02-18T00:42:42;95697.47;;;10.74;89.67
9855;BME280;4966;48.112;9.282;2023-02-18T00:45:08;95695.41;;;10.79;89.41
9855;BME280;4966;48.112;9.282;2023-02-18T00:47:33;95691.03;;;11.10;87.67
9855;BME280;4966;48.112;9.282;2023-02-18T00:49:59;95698.31;;;10.83;88.50
9855;BME280;4966;48.112;9.282;2023-02-18T00:52:24;95699.25;;;10.78;88.99
9855;BME280;4966;48.112;9.282;2023-02-18T00:54:49;95694.66;;;10.88;88.75
9855;BME280;4966;48.112;9.282;2023-02-18T00:57:14;95694.34;;;10.58;90.52
9855;BME280;4966;48.112;9.282;2023-02-18T00:59:40;95695.19;;;10.58;90.47
9855;BME280;4966;48.112;9.282;2023-02-18T01:02:05;95688.34;;;10.70;90.13
9855;BME280;4966;48.112;9.282;2023-02-18T01:04:31;95688.53;;;10.73;90.16
9855;BME280;4966;48.112;9.282;2023-02-18T01:06:57;95676.84;;;10.81;89.01
9855;BME280;4966;48.112;9.282;2023-02-18T01:09:22;95673.44;;;10.67;89.84
9855;BME280;4966;48.112;9.282;2023-02-18T01:11:49;95680.25;;;10.87;89.14
9855;BME280;4966;48.112;9.282;2023-02-18T01:14:15;95709.22;;;10.92;88.90
9855;BME280;4966;48.112;9.282;2023-02-18T01:16:40;95692.63;;;10.62;90.61
9855;BME280;4966;48.112;9.282;2023-02-18T01:19:06;95699.25;;;10.78;89.91
9855;BME280;4966;48.112;9.282;2023-02-18T01:21:31;95678.50;;;10.91;88.63
9855;BME280;4966;48.112;9.282;2023-02-18T01:23:56;95683.94;;;10.91;88.36
9855;BME280;4966;48.112;9.282;2023-02-18T01:26:23;95680.16;;;10.70;89.69
9855;BME280;4966;48.112;9.282;2023-02-18T01:28:49;95691.63;;;10.49;90.96
9855;BME280;4966;48.112;9.282;2023-02-18T01:31:14;95677.03;;;10.45;91.37
9855;BME280;4966;48.112;9.282;2023-02-18T01:33:40;95671.84;;;10.66;90.18
9855;BME280;4966;48.112;9.282;2023-02-18T01:36:07;95665.06;;;10.55;90.09
9855;BME280;4966;48.112;9.282;2023-02-18T01:38:33;95670.69;;;10.58;89.85
9855;BME280;4966;48.112;9.282;2023-02-18T01:40:58;95669.72;;;10.63;89.53
9855;BME280;4966;48.112;9.282;2023-02-18T01:43:24;95664.56;;;10.53;90.12
9855;BME280;4966;48.112;9.282;2023-02-18T01:46:04;95670.16;;;10.48;91.06
9855;BME280;4966;48.112;9.282;2023-02-18T01:48:37;95669.28;;;10.30;92.70
9855;BME280;4966;48.112;9.282;2023-02-18T01:51:05;95669.53;;;10.51;91.01
9855;BME280;4966;48.112;9.282;2023-02-18T01:54:05;95667.69;;;10.15;93.40
9855;BME280;4966;48.112;9.282;2023-02-18T01:56:44;95669.66;;;10.46;90.87
9855;BME280;4966;48.112;9.282;2023-02-18T01:59:15;95679.59;;;10.50;90.62
9855;BME280;4966;48.112;9.282;2023-02-18T02:01:43;95670.66;;;10.50;90.76
9855;BME280;4966;48.112;9.282;2023-02-18T02:04:09;95662.66;;;10.53;90.54
9855;BME280;4966;48.112;9.282;2023-02-18T02:06:34;95665.97;;;10.41;91.28
9855;BME280;4966;48.112;9.282;2023-02-18T02:09:02;95650.00;;;10.49;90.85
9855;BME280;4966;48.112;9.282;2023-02-18T02:30:35;95631.34;;;10.64;89.37
9855;BME280;4966;48.112;9.282;2023-02-18T02:38:31;95622.94;;;10.92;87.04
9855;BME280;4966;48.112;9.282;2023-02-18T02:44:11;95620.31;;;10.70;88.30
9855;BME280;4966;48.112;9.282;2023-02-18T02:46:45;95623.28;;;10.51;89.20
9855;BME280;4966;48.112;9.282;2023-02-18T02:49:23;95615.81;;;10.65;87.96
9855;BME280;4966;48.112;9.282;2023-02-18T02:52:21;95614.59;;;10.80;87.35
9855;BME280;4966;48.112;9.282;2023-02-18T02:54:47;95609.00;;;10.94;86.21
9855;BME280;4966;48.112;9.282;2023-02-18T02:59:44;95599.50;;;10.74;87.56
9855;BME280;4966;48.112;9.282;2023-02-18T03:02:22;95602.75;;;10.93;85.87
9855;BME280;4966;48.112;9.282;2023-02-18T03:05:03;95616.06;;;10.46;88.52
9855;BME280;4966;48.112;9.282;2023-02-18T03:19:01;95612.31;;;10.33;89.60
9855;BME280;4966;48.112;9.282;2023-02-18T03:21:40;95613.38;;;10.55;88.91
9855;BME280;4966;48.112;9.282;2023-02-18T03:24:28;95611.03;;;10.71;87.68
9855;BME280;4966;48.112;9.282;2023-02-18T03:27:01;95628.25;;;10.49;89.14
9855;BME280;4966;48.112;9.282;2023-02-18T03:29:29;95628.91;;;10.54;89.37
9855;BME280;4966;48.112;9.282;2023-02-18T03:32:00;95621.72;;;10.58;88.59
9855;BME280;4966;48.112;9.282;2023-02-18T03:34:33;95613.22;;;10.60;88.48
9855;BME280;4966;48.112;9.282;2023-02-18T03:37:00;95613.38;;;10.55;88.44
9855;BME280;4966;48.112;9.282;2023-02-18T03:39:28;95613.47;;;10.41;89.61
9855;BME280;4966;48.112;9.282;2023-02-18T03:41:54;95623.47;;;10.23;91.30
9855;BME280;4966;48.112;9.282;2023-02-18T03:44:20;95614.56;;;10.31;90.96
9855;BME280;4966;48.112;9.282;2023-02-18T03:46:45;95612.47;;;10.28;91.47
9855;BME280;4966;48.112;9.282;2023-02-18T03:49:12;95609.56;;;10.64;89.06
9855;BME280;4966;48.112;9.282;2023-02-18T03:51:38;95607.91;;;10.46;90.19
9855;BME280;4966;48.112;9.282;2023-02-18T03:54:04;95598.91;;;10.37;90.95
9855;BME280;4966;48.112;9.282;2023-02-18T03:56:29;95606.81;;;10.25;91.88
9855;BME280;4966;48.112;9.282;2023-02-18T03:58:54;95596.31;;;10.32;91.22
9855;BME280;4966;48.112;9.282;2023-02-18T04:01:20;95599.53;;;10.34;91.18
9855;BME280;4966;48.112;9.282;2023-02-18T04:03:45;95596.66;;;10.39;91.31
9855;BME280;4966;48.112;9.282;2023-02-18T04:06:11;95595.84;;;10.30;91.24
9855;BME280;4966;48.112;9.282;2023-02-18T04:08:36;95584.91;;;10.21;91.96
9855;BME280;4966;48.112;9.282;2023-02-18T04:11:02;95591.56;;;10.37;90.74
9855;BME280;4966;48.112;9.282;2023-02-18T04:13:28;95584.50;;;10.36;91.27
9855;BME280;4966;48.112;9.282;2023-02-18T04:15:53;95584.00;;;10.03;93.16
9855;BME280;4966;48.112;9.282;2023-02-18T04:18:18;95584.91;;;10.21;92.28
9855;BME280;4966;48.112;9.282;2023-02-18T04:20:44;95577.72;;;10.25;91.87
9855;BME280;4966;48.112;9.282;2023-02-18T04:23:13;95582.59;;;10.37;90.99
9855;BME280;4966;48.112;9.282;2023-02-18T04:25:38;95570.66;;;10.15;92.05
9855;BME280;4966;48.112;9.282;2023-02-18T04:28:04;95573.28;;;10.29;91.20
9855;BME280;4966;48.112;9.282;2023-02-18T04:30:30;95575.06;;;10.34;91.02
9855;BME280;4966;48.112;9.282;2023-02-18T04:32:55;95566.16;;;10.19;91.64
9855;BME280;4966;48.112;9.282;2023-02-18T04:35:21;95570.75;;;10.33;91.09
9855;BME280;4966;48.112;9.282;2023-02-18T04:37:46;95575.22;;;10.06;92.62
9855;BME280;4966;48.112;9.282;2023-02-18T04:40:11;95567.72;;;10.12;92.02
9855;BME280;4966;48.112;9.282;2023-02-18T04:42:37;95569.34;;;10.13;91.94
9855;BME280;4966;48.112;9.282;2023-02-18T04:45:03;95570.06;;;10.27;90.97
9855;BME280;4966;48.112;9.282;2023-02-18T04:47:29;95577.38;;;10.18;91.41
9855;BME280;4966;48.112;9.282;2023-02-18T04:49:54;95575.25;;;10.15;91.93
9855;BME280;4966;48.112;9.282;2023-02-18T04:52:19;95576.53;;;10.40;90.41
9855;BME280;4966;48.112;9.282;2023-02-18T04:54:45;95572.59;;;10.23;90.72
9855;BME280;4966;48.112;9.282;2023-02-18T04:57:11;95569.75;;;10.29;90.56
9855;BME280;4966;48.112;9.282;2023-02-18T04:59:37;95564.63;;;10.27;90.66
9855;BME280;4966;48.112;9.282;2023-02-18T05:02:02;95572.44;;;10.20;91.16
9855;BME280;4966;48.112;9.282;2023-02-18T05:04:28;95571.09;;;10.09;92.22
9855;BME280;4966;48.112;9.282;2023-02-18T05:06:53;95573.66;;;10.14;91.92
9855;BME280;4966;48.112;9.282;2023-02-18T05:09:19;95563.28;;;10.16;91.79
9855;BME280;4966;48.112;9.282;2023-02-18T05:11:44;95573.09;;;9.94;92.99
9855;BME280;4966;48.112;9.282;2023-02-18T05:14:10;95569.59;;;10.02;92.13
9855;BME280;4966;48.112;9.282;2023-02-18T05:16:35;95567.03;;;9.97;92.70
9855;BME280;4966;48.112;9.282;2023-02-18T05:19:00;95570.72;;;10.01;91.99
9855;BME280;4966;48.112;9.282;2023-02-18T05:21:26;95564.03;;;10.08;92.24
9855;BME280;4966;48.112;9.282;2023-02-18T05:23:51;95566.53;;;9.95;92.57
9855;BME280;4966;48.112;9.282;2023-02-18T05:26:17;95573.94;;;10.04;92.38
9855;BME280;4966;48.112;9.282;2023-02-18T05:28:42;95564.13;;;10.25;90.94
9855;BME280;4966;48.112;9.282;2023-02-18T05:31:07;95575.59;;;10.22;91.01
9855;BME280;4966;48.112;9.282;2023-02-18T05:33:33;95576.09;;;10.24;90.63
9855;BME280;4966;48.112;9.282;2023-02-18T05:35:58;95573.81;;;10.17;91.02
9855;BME280;4966;48.112;9.282;2023-02-18T05:38:24;95574.19;;;10.25;90.22
9855;BME280;4966;48.112;9.282;2023-02-18T05:40:49;95572.19;;;10.08;91.85
9855;BME280;4966;48.112;9.282;2023-02-18T05:43:14;95570.94;;;10.14;91.41
9855;BME280;4966;48.112;9.282;2023-02-18T05:45:40;95569.78;;;10.06;91.19
9855;BME280;4966;48.112;9.282;2023-02-18T05:48:05;95565.81;;;10.12;91.13
9855;BME280;4966;48.112;9.282;2023-02-18T05:50:31;95560.56;;;10.16;91.03
9855;BME280;4966;48.112;9.282;2023-02-18T05:52:56;95559.13;;;10.18;90.90
9855;BME280;4966;48.112;9.282;2023-02-18T05:55:22;95556.16;;;10.29;89.89
9855;BME280;4966;48.112;9.282;2023-02-18T05:57:48;95553.44;;;10.29;90.08
9855;BME280;4966;48.112;9.282;2023-02-18T06:00:14;95554.63;;;10.14;91.02
9855;BME280;4966;48.112;9.282;2023-02-18T06:02:40;95556.13;;;10.20;90.54
9855;BME280;4966;48.112;9.282;2023-02-18T06:05:05;95552.91;;;10.18;90.61
9855;BME280;4966;48.112;9.282;2023-02-18T06:07:31;95553.50;;;10.15;91.16
9855;BME280;4966;48.112;9.282;2023-02-18T06:09:56;95546.78;;;10.12;91.53
9855;BME280;4966;48.112;9.282;2023-02-18T06:12:22;95545.53;;;10.18;90.84
9855;BME280;4966;48.112;9.282;2023-02-18T06:14:47;95534.44;;;10.46;89.12
9855;BME280;4966;48.112;9.282;2023-02-18T06:17:13;95541.19;;;10.57;87.95
9855;BME280;4966;48.112;9.282;2023-02-18T06:19:39;95538.47;;;10.49;88.28
9855;BME280;4966;48.112;9.282;2023-02-18T06:22:04;95544.25;;;10.16;90.99
9855;BME280;4966;48.112;9.282;2023-02-18T06:24:30;95545.47;;;10.41;89.67
9855;BME280;4966;48.112;9.282;2023-02-18T06:26:55;95555.47;;;10.23;90.01
9855;BME280;4966;48.112;9.282;2023-02-18T06:29:20;95557.78;;;10.38;89.40
9855;BME280;4966;48.112;9.282;2023-02-18T06:31:46;95560.69;;;10.42;89.28
9855;BME280;4966;48.112;9.282;2023-02-18T06:34:11;95551.06;;;10.05;91.70
9855;BME280;4966;48.112;9.282;2023-02-18T06:36:37;95547.13;;;10.19;91.27
9855;BME280;4966;48.112;9.282;2023-02-18T06:39:04;95554.28;;;10.38;89.81
9855;BME280;4966;48.112;9.282;2023-02-18T06:41:29;95555.84;;;10.30;89.93
9855;BME280;4966;48.112;9.282;2023-02-18T06:43:55;95560.81;;;10.28;90.58
9855;BME280;4966;48.112;9.282;2023-02-18T06:46:20;95560.50;;;10.30;90.19
9855;BME280;4966;48.112;9.282;2023-02-18T06:48:46;95561.00;;;10.40;89.91
9855;BME280;4966;48.112;9.282;2023-02-18T06:51:12;95563.13;;;10.21;90.61
9855;BME280;4966;48.112;9.282;2023-02-18T06:53:37;95553.28;;;10.34;89.80
9855;BME280;4966;48.112;9.282;2023-02-18T06:56:03;95557.69;;;10.52;88.75
9855;BME280;4966;48.112;9.282;2023-02-18T06:58:28;95553.69;;;10.18;90.17
9855;BME280;4966;48.112;9.282;2023-02-18T07:00:54;95563.63;;;10.23;90.40
9855;BME280;4966;48.112;9.282;2023-02-18T07:03:19;95567.56;;;10.39;89.65
9855;BME280;4966;48.112;9.282;2023-02-18T07:05:45;95563.78;;;10.18;90.39
9855;BME280;4966;48.112;9.282;2023-02-18T07:08:11;95563.69;;;10.32;89.68
9855;BME280;4966;48.112;9.282;2023-02-18T07:10:37;95559.91;;;10.50;88.72
9855;BME280;4966;48.112;9.282;2023-02-18T07:13:03;95566.25;;;10.28;89.59
9855;BME280;4966;48.112;9.282;2023-02-18T07:15:28;95564.56;;;10.50;88.52
9855;BME280;4966;48.112;9.282;2023-02-18T07:17:54;95563.75;;;10.58;87.76
9855;BME280;4966;48.112;9.282;2023-02-18T07:20:20;95563.38;;;10.33;88.71
9855;BME280;4966;48.112;9.282;2023-02-18T07:22:46;95566.09;;;10.33;88.93
9855;BME280;4966;48.112;9.282;2023-02-18T07:25:12;95554.03;;;10.66;87.11
9855;BME280;4966;48.112;9.282;2023-02-18T07:27:38;95565.06;;;10.60;87.43
9855;BME280;4966;48.112;9.282;2023-02-18T07:30:04;95564.63;;;10.76;86.44
9855;BME280;4966;48.112;9.282;2023-02-18T07:32:29;95567.97;;;10.64;86.97
9855;BME280;4966;48.112;9.282;2023-02-18T07:34:55;95560.66;;;10.33;88.34
9855;BME280;4966;48.112;9.282;2023-02-18T07:37:22;95562.13;;;10.39;88.76
9855;BME280;4966;48.112;9.282;2023-02-18T07:39:48;95569.59;;;10.82;86.48
9855;BME280;4966;48.112;9.282;2023-02-18T07:42:13;95573.09;;;10.66;87.15
9855;BME280;4966;48.112;9.282;2023-02-18T07:44:39;95570.56;;;10.78;85.96
9855;BME280;4966;48.112;9.282;2023-02-18T07:47:06;95570.22;;;10.71;86.48
9855;BME280;4966;48.112;9.282;2023-02-18T07:49:32;95567.38;;;11.02;85.29
9855;BME280;4966;48.112;9.282;2023-02-18T07:51:58;95569.72;;;10.77;85.76
9855;BME280;4966;48.112;9.282;2023-02-18T07:54:23;95568.34;;;11.06;84.61
9855;BME280;4966;48.112;9.282;2023-02-18T07:56:49;95579.22;;;11.58;82.17
9855;BME280;4966;48.112;9.282;2023-02-18T07:59:14;95568.03;;;11.34;82.95
9855;BME280;4966;48.112;9.282;2023-02-18T08:01:40;95570.56;;;11.56;81.94
9855;BME280;4966;48.112;9.282;2023-02-18T08:04:06;95576.66;;;11.79;80.41
9855;BME280;4966;48.112;9.282;2023-02-18T08:06:40;95576.63;;;11.97;80.08
9855;BME280;4966;48.112;9.282;2023-02-18T08:09:06;95582.13;;;11.88;79.13
9855;BME280;4966;48.112;9.282;2023-02-18T08:11:32;95574.19;;;12.12;78.67
9855;BME280;4966;48.112;9.282;2023-02-18T08:13:58;95574.25;;;11.95;79.82
9855;BME280;4966;48.112;9.282;2023-02-18T08:16:24;95582.59;;;11.73;80.23
9855;BME280;4966;48.112;9.282;2023-02-18T08:18:50;95574.06;;;12.00;78.92
9855;BME280;4966;48.112;9.282;2023-02-18T08:21:17;95581.03;;;12.36;77.76
9855;BME280;4966;48.112;9.282;2023-02-18T08:23:43;95576.34;;;11.81;79.84
9855;BME280;4966;48.112;9.282;2023-02-18T08:26:09;95560.81;;;11.46;80.65
9855;BME280;4966;48.112;9.282;2023-02-18T08:28:34;95567.22;;;11.59;81.10
9855;BME280;4966;48.112;9.282;2023-02-18T08:30:59;95569.47;;;11.57;81.21
9855;BME280;4966;48.112;9.282;2023-02-18T08:33:25;95558.38;;;11.88;79.70
9855;BME280;4966;48.112;9.282;2023-02-18T08:35:52;95543.66;;;11.55;80.29
9855;BME280;4966;48.112;9.282;2023-02-18T08:38:18;95544.72;;;11.80;79.54
9855;BME280;4966;48.112;9.282;2023-02-18T08:40:44;95537.78;;;12.08;78.14
9855;BME280;4966;48.112;9.282;2023-02-18T08:43:10;95551.97;;;11.58;79.65
9855;BME280;4966;48.112;9.282;2023-02-18T08:45:37;95546.00;;;11.82;79.29
9855;BME280;4966;48.112;9.282;2023-02-18T08:48:03;95547.81;;;11.78;78.90
9855;BME280;4966;48.112;9.282;2023-02-18T08:50:29;95543.63;;;11.89;78.47
9855;BME280;4966;48.112;9.282;2023-02-18T08:52:55;95542.06;;;11.62;78.39
9855;BME280;4966;48.112;9.282;2023-02-18T08:55:22;95543.28;;;11.82;78.14
9855;BME280;4966;48.112;9.282;2023-02-18T08:57:48;95544.16;;;11.57;78.92
9855;BME280;4966;48.112;9.282;2023-02-18T09:00:14;95540.16;;;11.45;79.73
9855;BME280;4966;48.112;9.282;2023-02-18T09:02:40;95546.88;;;11.48;79.49
9855;BME280;4966;48.112;9.282;2023-02-18T09:05:06;95541.25;;;11.44;79.75
9855;BME280;4966;48.112;9.282;2023-02-18T09:07:32;95535.16;;;11.56;78.29
9855;BME280;4966;48.112;9.282;2023-02-18T09:09:57;95533.22;;;11.74;77.52
9855;BME280;4966;48.112;9.282;2023-02-18T09:12:22;95528.53;;;11.83;77.53
9855;BME280;4966;48.112;9.282;2023-02-18T09:14:48;95534.63;;;11.89;77.01
9855;BME280;4966;48.112;9.282;2023-02-18T09:17:13;95529.13;;;12.06;76.37
9855;BME280;4966;48.112;9.282;2023-02-18T09:19:39;95528.59;;;12.22;75.70
9855;BME280;4966;48.112;9.282;2023-02-18T09:22:04;95527.75;;;11.83;76.54
9855;BME280;4966;48.112;9.282;2023-02-18T09:24:29;95523.16;;;12.22;75.09
9855;BME280;4966;48.112;9.282;2023-02-18T09:26:55;95526.47;;;12.27;74.66
9855;BME280;4966;48.112;9.282;2023-02-18T09:29:20;95528.78;;;12.17;74.47
9855;BME280;4966;48.112;9.282;2023-02-18T09:31:46;95512.38;;;12.25;74.36
9855;BME280;4966;48.112;9.282;2023-02-18T09:34:11;95516.25;;;12.16;74.63
9855;BME280;4966;48.112;9.282;2023-02-18T09:36:37;95523.66;;;12.06;74.44
9855;BME280;4966;48.112;9.282;2023-02-18T09:39:04;95519.28;;;12.23;74.03
9855;BME280;4966;48.112;9.282;2023-02-18T09:44:10;95509.03;;;12.20;73.55
9855;BME280;4966;48.112;9.282;2023-02-18T09:47:14;95502.69;;;11.98;74.10
9855;BME280;4966;48.112;9.282;2023-02-18T09:49:47;95505.72;;;12.05;73.89
9855;BME280;4966;48.112;9.282;2023-02-18T09:52:19;95508.44;;;12.05;74.48
9855;BME280;4966;48.112;9.282;2023-02-18T09:54:48;95508.63;;;12.39;72.28
9855;BME280;4966;48.112;9.282;2023-02-18T09:57:24;95501.31;;;12.22;73.26
9855;BME280;4966;48.112;9.282;2023-02-18T09:59:57;95505.06;;;12.08;73.90
9855;BME280;4966;48.112;9.282;2023-02-18T10:02:25;95497.47;;;12.52;72.69
9855;BME280;4966;48.112;9.282;2023-02-18T10:04:51;95515.63;;;12.48;71.76
9855;BME280;4966;48.112;9.282;2023-02-18T10:07:25;95512.31;;;12.04;73.91
9855;BME280;4966;48.112;9.282;2023-02-18T10:09:53;95505.44;;;12.28;73.02
9855;BME280;4966;48.112;9.282;2023-02-18T10:12:22;95496.44;;;12.36;72.36
9855;BME280;4966;48.112;9.282;2023-02-18T10:14:55;95510.22;;;12.40;72.59
9855;BME280;4966;48.112;9.282;2023-02-18T10:17:27;95503.06;;;12.26;72.77
9855;BME280;4966;48.112;9.282;2023-02-18T10:19:55;95501.63;;;12.29;73.05
9855;BME280;4966;48.112;9.282;2023-02-18T10:22:23;95493.00;;;12.48;72.30
9855;BME280;4966;48.112;9.282;2023-02-18T10:24:52;95486.66;;;12.65;71.04
9855;BME280;4966;48.112;9.282;2023-02-18T10:27:26;95489.47;;;12.47;72.21
9855;BME280;4966;48.112;9.282;2023-02-18T10:29:54;95480.53;;;12.38;72.04
9855;BME280;4966;48.112;9.282;2023-02-18T10:32:22;95470.56;;;12.42;71.37
9855;BME280;4966;48.112;9.282;2023-02-18T10:43:37;95454.69;;;12.65;70.73
9855;BME280;4966;48.112;9.282;2023-02-18T10:51:25;95442.50;;;12.63;70.77
9855;BME280;4966;48.112;9.282;2023-02-18T10:53:53;95437.38;;;13.03;69.53
9855;BME280;4966;48.112;9.282;2023-02-18T10:56:45;95442.09;;;13.15;68.57
9855;BME280;4966;48.112;9.282;2023-02-18T11:01:44;95444.34;;;14.04;65.62
9855;BME280;4966;48.112;9.282;2023-02-18T11:04:16;95443.88;;;14.26;64.39
9855;BME280;4966;48.112;9.282;2023-02-18T11:06:46;95447.84;;;15.19;62.11
9855;BME280;4966;48.112;9.282;2023-02-18T11:09:33;95443.50;;;14.89;61.29
9855;BME280;4966;48.112;9.282;2023-02-18T11:12:23;95440.47;;;14.66;61.49
9855;BME280;4966;48.112;9.282;2023-02-18T11:17:34;95432.31;;;15.23;59.99
9855;BME280;4966;48.112;9.282;2023-02-18T11:25:35;95433.97;;;15.27;56.27
9855;BME280;4966;48.112;9.282;2023-02-18T11:28:06;95440.53;;;15.67;55.18
9855;BME280;4966;48.112;9.282;2023-02-18T11:30:49;95435.94;;;15.27;54.82
9855;BME280;4966;48.112;9.282;2023-02-18T11:35:53;95430.53;;;14.62;55.81
9855;BME280;4966;48.112;9.282;2023-02-18T11:38:28;95428.97;;;14.89;55.18
9855;BME280;4966;48.112;9.282;2023-02-18T11:41:06;95428.72;;;14.66;56.03
9855;BME280;4966;48.112;9.282;2023-02-18T11:43:33;95412.38;;;14.70;54.96
9855;BME280;4966;48.112;9.282;2023-02-18T11:46:15;95401.53;;;15.29;54.05
9855;BME280;4966;48.112;9.282;2023-02-18T11:48:41;95408.53;;;14.34;57.21
9855;BME280;4966;48.112;9.282;2023-02-18T11:51:26;95398.31;;;15.12;55.78
9855;BME280;4966;48.112;9.282;2023-02-18T11:54:02;95396.75;;;15.26;55.65
9855;BME280;4966;48.112;9.282;2023-02-18T11:56:32;95388.81;;;15.21;56.08
9855;BME280;4966;48.112;9.282;2023-02-18T11:59:00;95405.13;;;15.18;55.48
9855;BME280;4966;48.112;9.282;2023-02-18T12:01:43;95397.38;;;15.20;55.63
9855;BME280;4966;48.112;9.282;2023-02-18T12:04:13;95393.34;;;15.01;56.40
9855;BME280;4966;48.112;9.282;2023-02-18T12:09:40;95380.91;;;15.20;55.18
9855;BME280;4966;48.112;9.282;2023-02-18T12:12:14;95362.63;;;15.24;55.85
9855;BME280;4966;48.112;9.282;2023-02-18T12:14:40;95361.22;;;14.86;55.77
9855;BME280;4966;48.112;9.282;2023-02-18T12:28:18;95371.38;;;14.33;57.47
9855;BME280;4966;48.112;9.282;2023-02-18T12:44:24;95358.25;;;14.79;53.90
9855;BME280;4966;48.112;9.282;2023-02-18T13:00:29;95342.75;;;14.83;53.33
9855;BME280;4966;48.112;9.282;2023-02-18T13:15:18;95338.59;;;14.89;52.04
9855;BME280;4966;48.112;9.282;2023-02-18T13:17:46;95339.88;;;14.39;52.69
9855;BME280;4966;48.112;9.282;2023-02-18T13:22:41;95345.09;;;14.97;52.24
9855;BME280;4966;48.112;9.282;2023-02-18T13:25:11;95338.56;;;14.73;52.21
9855;BME280;4966;48.112;9.282;2023-02-18T13:33:49;95340.59;;;14.23;52.79
9855;BME280;4966;48.112;9.282;2023-02-18T13:39:08;95333.47;;;14.47;52.09
9855;BME280;4966;48.112;9.282;2023-02-18T13:41:38;95337.22;;;13.90;53.04
9855;BME280;4966;48.112;9.282;2023-02-18T13:44:08;95332.88;;;14.01;52.75
9855;BME280;4966;48.112;9.282;2023-02-18T13:46:58;95339.59;;;14.16;52.20
9855;BME280;4966;48.112;9.282;2023-02-18T13:49:26;95336.31;;;13.61;52.64
9855;BME280;4966;48.112;9.282;2023-02-18T13:51:57;95333.56;;;13.73;53.30
9855;BME280;4966;48.112;9.282;2023-02-18T13:54:28;95323.09;;;13.38;53.96
9855;BME280;4966;48.112;9.282;2023-02-18T13:56:59;95320.28;;;13.26;54.17
9855;BME280;4966;48.112;9.282;2023-02-18T13:59:42;95321.25;;;13.55;53.49
9855;BME280;4966;48.112;9.282;2023-02-18T14:07:28;95334.91;;;13.43;54.00
9855;BME280;4966;48.112;9.282;2023-02-18T14:10:28;95334.59;;;13.44;53.83
9855;BME280;4966;48.112;9.282;2023-02-18T14:20:30;95335.88;;;13.26;54.45
9855;BME280;4966;48.112;9.282;2023-02-18T14:22:56;95324.31;;;13.29;54.30
9855;BME280;4966;48.112;9.282;2023-02-18T14:28:02;95324.13;;;13.34;54.01
9855;BME280;4966;48.112;9.282;2023-02-18T14:30:34;95336.06;;;13.54;53.74
9855;BME280;4966;48.112;9.282;2023-02-18T14:33:02;95327.31;;;13.48;53.61
9855;BME280;4966;48.112;9.282;2023-02-18T14:35:47;95322.72;;;13.28;54.21
9855;BME280;4966;48.112;9.282;2023-02-18T14:41:20;95333.91;;;13.02;54.62
9855;BME280;4966;48.112;9.282;2023-02-18T14:44:07;95328.34;;;13.10;54.34
9855;BME280;4966;48.112;9.282;2023-02-18T14:49:42;95326.72;;;13.30;53.94
9855;BME280;4966;48.112;9.282;2023-02-18T14:52:16;95332.19;;;13.30;54.04
9855;BME280;4966;48.112;9.282;2023-02-18T14:54:44;95316.66;;;13.10;54.27
9855;BME280;4966;48.112;9.282;2023-02-18T14:57:17;95318.66;;;13.01;54.87
9855;BME280;4966;48.112;9.282;2023-02-18T14:59:46;95318.13;;;13.19;54.61
9855;BME280;4966;48.112;9.282;2023-02-18T15:02:21;95327.22;;;13.24;54.57
9855;BME280;4966;48.112;9.282;2023-02-18T15:04:47;95315.38;;;13.07;54.88
9855;BME280;4966;48.112;9.282;2023-02-18T15:07:18;95321.66;;;13.20;54.77
9855;BME280;4966;48.112;9.282;2023-02-18T15:09:44;95324.16;;;13.25;54.88
9855;BME280;4966;48.112;9.282;2023-02-18T15:12:15;95328.31;;;13.31;54.44
9855;BME280;4966;48.112;9.282;2023-02-18T15:14:42;95319.69;;;13.08;54.89
9855;BME280;4966;48.112;9.282;2023-02-18T15:17:15;95324.16;;;13.25;54.80
9855;BME280;4966;48.112;9.282;2023-02-18T15:19:51;95318.97;;;12.87;55.39
9855;BME280;4966;48.112;9.282;2023-02-18T15:22:20;95313.19;;;13.46;54.40
9855;BME280;4966;48.112;9.282;2023-02-18T15:24:46;95311.69;;;13.73;53.58
9855;BME280;4966;48.112;9.282;2023-02-18T15:27:16;95305.78;;;13.47;54.41
9855;BME280;4966;48.112;9.282;2023-02-18T15:29:43;95300.22;;;13.55;54.23
9855;BME280;4966;48.112;9.282;2023-02-18T15:32:20;95302.16;;;13.67;53.96
9855;BME280;4966;48.112;9.282;2023-02-18T15:34:50;95304.47;;;13.19;55.02
9855;BME280;4966;48.112;9.282;2023-02-18T15:37:16;95291.41;;;13.62;54.22
9855;BME280;4966;48.112;9.282;2023-02-18T15:39:42;95285.41;;;13.32;55.21
9855;BME280;4966;48.112;9.282;2023-02-18T15:42:28;95288.59;;;13.46;54.60
9855;BME280;4966;48.112;9.282;2023-02-18T15:44:57;95287.78;;;13.33;55.02
9855;BME280;4966;48.112;9.282;2023-02-18T15:47:26;95276.84;;;13.33;55.22
9855;BME280;4966;48.112;9.282;2023-02-18T15:49:55;95277.06;;;13.28;55.18
9855;BME280;4966;48.112;9.282;2023-02-18T15:52:26;95283.69;;;13.27;55.08
9855;BME280;4966;48.112;9.282;2023-02-18T15:54:52;95274.59;;;13.60;54.44
9855;BME280;4966;48.112;9.282;2023-02-18T15:57:23;95269.78;;;13.45;54.54
9855;BME280;4966;48.112;9.282;2023-02-18T15:59:57;95269.91;;;13.48;54.36
9855;BME280;4966;48.112;9.282;2023-02-18T16:02:28;95269.53;;;13.25;54.65
9855;BME280;4966;48.112;9.282;2023-02-18T16:04:58;95268.22;;;13.31;55.01
9855;BME280;4966;48.112;9.282;2023-02-18T16:07:29;95267.53;;;13.34;54.67